AZU2918 SBKP-SBML
Flight info
| Callsign | AZU2918 |
|---|---|
| Flight time | 0h 48m |
| Altitude | 14000 |
| Route | OBLUG |
| Aircraft | AT76/M-SDFGIRY/S |
Departure
| Time | 2026-05-06 16:25 |
|---|---|
| Airport | Viracopos International Airport (SBKP) |
Arrival
| Time | 2026-05-06 17:13 |
|---|---|
| Airport | Frank Miloye Milenkowichi–Marília State Airport (SBML) |
| Time | Latitude | Longitude | Altitude | Speed | Heading |
|---|---|---|---|---|---|
| 2026-05-06 16:02 | -23.00243 | -47.14835 | 2154 ft | 0 kts | 38° |
| 2026-05-06 16:12 | -23.00254 | -47.14844 | 2154 ft | 4 kts | 25° |
| 2026-05-06 16:12 | -23.00279 | -47.14849 | 2150 ft | 4 kts | 347° |
| 2026-05-06 16:12 | -23.00303 | -47.14838 | 2154 ft | 4 kts | 320° |
| 2026-05-06 16:13 | -23.00318 | -47.14821 | 2154 ft | 0 kts | 307° |
| 2026-05-06 16:20 | -23.00312 | -47.14830 | 2149 ft | 3 kts | 307° |
| 2026-05-06 16:20 | -23.00293 | -47.14857 | 2154 ft | 6 kts | 307° |
| 2026-05-06 16:21 | -23.00264 | -47.14897 | 2151 ft | 8 kts | 308° |
| 2026-05-06 16:21 | -23.00229 | -47.14946 | 2152 ft | 9 kts | 308° |
| 2026-05-06 16:21 | -23.00188 | -47.14994 | 2151 ft | 8 kts | 336° |
| 2026-05-06 16:21 | -23.00144 | -47.14971 | 2150 ft | 7 kts | 39° |
| 2026-05-06 16:22 | -23.00103 | -47.14936 | 2151 ft | 8 kts | 39° |
| 2026-05-06 16:22 | -23.00062 | -47.14900 | 2150 ft | 8 kts | 39° |
| 2026-05-06 16:22 | -23.00019 | -47.14863 | 2148 ft | 8 kts | 39° |
| 2026-05-06 16:22 | -22.99978 | -47.14822 | 2154 ft | 8 kts | 45° |
| 2026-05-06 16:23 | -22.99939 | -47.14779 | 2150 ft | 8 kts | 45° |
| 2026-05-06 16:23 | -22.99903 | -47.14731 | 2149 ft | 8 kts | 67° |
| 2026-05-06 16:23 | -22.99882 | -47.14672 | 2151 ft | 9 kts | 76° |
| 2026-05-06 16:23 | -22.99889 | -47.14640 | 2153 ft | 0 kts | 122° |
| 2026-05-06 16:24 | -22.99909 | -47.14606 | 2150 ft | 25 kts | 123° |
| 2026-05-06 16:24 | -23.00132 | -47.14293 | 2150 ft | 79 kts | 127° |
| 2026-05-06 16:24 | -23.00565 | -47.13682 | 2151 ft | 125 kts | 127° |
| 2026-05-06 16:24 | -23.01125 | -47.12844 | 2369 ft | 141 kts | 124° |
| 2026-05-06 16:25 | -23.01746 | -47.12045 | 2927 ft | 132 kts | 136° |
| 2026-05-06 16:25 | -23.02434 | -47.11283 | 3223 ft | 145 kts | 141° |
| 2026-05-06 16:25 | -23.03373 | -47.11084 | 3554 ft | 145 kts | 199° |
| 2026-05-06 16:25 | -23.04289 | -47.11539 | 3862 ft | 144 kts | 204° |
| 2026-05-06 16:26 | -23.05211 | -47.11985 | 4161 ft | 146 kts | 203° |
| 2026-05-06 16:26 | -23.06149 | -47.12403 | 4459 ft | 146 kts | 201° |
| 2026-05-06 16:26 | -23.07108 | -47.12778 | 4763 ft | 147 kts | 198° |
| 2026-05-06 16:26 | -23.08086 | -47.13097 | 5055 ft | 147 kts | 195° |
| 2026-05-06 16:27 | -23.09074 | -47.13369 | 5345 ft | 146 kts | 193° |
| 2026-05-06 16:27 | -23.09915 | -47.13930 | 5587 ft | 147 kts | 242° |
| 2026-05-06 16:27 | -23.10030 | -47.15007 | 5841 ft | 147 kts | 277° |
| 2026-05-06 16:27 | -23.09876 | -47.16110 | 6092 ft | 147 kts | 282° |
| 2026-05-06 16:28 | -23.09595 | -47.17180 | 6414 ft | 150 kts | 290° |
| 2026-05-06 16:28 | -23.09216 | -47.18266 | 6717 ft | 160 kts | 293° |
| 2026-05-06 16:28 | -23.08778 | -47.19433 | 7016 ft | 171 kts | 293° |
| 2026-05-06 16:28 | -23.08311 | -47.20664 | 7322 ft | 181 kts | 294° |
| 2026-05-06 16:29 | -23.07803 | -47.21958 | 7624 ft | 190 kts | 294° |
| 2026-05-06 16:29 | -23.07295 | -47.23278 | 7923 ft | 191 kts | 294° |
| 2026-05-06 16:29 | -23.06790 | -47.24616 | 8223 ft | 189 kts | 293° |
| 2026-05-06 16:29 | -23.06306 | -47.25928 | 8521 ft | 188 kts | 293° |
| 2026-05-06 16:30 | -23.05830 | -47.27237 | 8822 ft | 186 kts | 293° |
| 2026-05-06 16:30 | -23.05506 | -47.28117 | 9029 ft | 185 kts | 293° |
| 2026-05-06 16:30 | -23.04875 | -47.29823 | 9418 ft | 182 kts | 293° |
| 2026-05-06 16:30 | -23.04402 | -47.31097 | 9721 ft | 180 kts | 293° |
| 2026-05-06 16:31 | -23.03935 | -47.32355 | 10019 ft | 178 kts | 293° |
| 2026-05-06 16:31 | -23.03480 | -47.33597 | 10318 ft | 179 kts | 293° |
| 2026-05-06 16:31 | -23.02988 | -47.34898 | 10447 ft | 195 kts | 294° |
| 2026-05-06 16:31 | -23.02444 | -47.36296 | 10473 ft | 207 kts | 294° |
| 2026-05-06 16:32 | -23.01877 | -47.37745 | 10647 ft | 209 kts | 294° |
| 2026-05-06 16:32 | -23.01328 | -47.39191 | 10839 ft | 210 kts | 293° |
| 2026-05-06 16:32 | -23.00776 | -47.40666 | 11035 ft | 211 kts | 293° |
| 2026-05-06 16:32 | -23.00221 | -47.42153 | 11241 ft | 212 kts | 293° |
| 2026-05-06 16:33 | -22.99666 | -47.43639 | 11431 ft | 212 kts | 293° |
| 2026-05-06 16:33 | -22.99119 | -47.45108 | 11621 ft | 213 kts | 293° |
| 2026-05-06 16:33 | -22.98562 | -47.46602 | 11822 ft | 213 kts | 293° |
| 2026-05-06 16:34 | -22.97443 | -47.49599 | 12210 ft | 214 kts | 293° |
| 2026-05-06 16:34 | -22.96881 | -47.51104 | 12394 ft | 215 kts | 293° |
| 2026-05-06 16:34 | -22.96319 | -47.52609 | 12592 ft | 215 kts | 292° |
| 2026-05-06 16:34 | -22.95763 | -47.54100 | 12768 ft | 216 kts | 292° |
| 2026-05-06 16:35 | -22.95194 | -47.55621 | 12957 ft | 217 kts | 292° |
| 2026-05-06 16:35 | -22.94628 | -47.57138 | 13124 ft | 217 kts | 292° |
| 2026-05-06 16:35 | -22.94064 | -47.58645 | 13298 ft | 217 kts | 292° |
| 2026-05-06 16:35 | -22.93496 | -47.60166 | 13472 ft | 218 kts | 292° |
| 2026-05-06 16:36 | -22.92923 | -47.61698 | 13633 ft | 218 kts | 292° |
| 2026-05-06 16:36 | -22.92353 | -47.63224 | 13794 ft | 218 kts | 292° |
| 2026-05-06 16:36 | -22.91778 | -47.64759 | 13909 ft | 221 kts | 292° |
| 2026-05-06 16:36 | -22.91191 | -47.66326 | 13958 ft | 227 kts | 291° |
| 2026-05-06 16:37 | -22.90590 | -47.67932 | 13977 ft | 233 kts | 291° |
| 2026-05-06 16:37 | -22.89980 | -47.69559 | 13987 ft | 238 kts | 292° |
| 2026-05-06 16:37 | -22.89348 | -47.71244 | 13996 ft | 243 kts | 292° |
| 2026-05-06 16:37 | -22.88706 | -47.72957 | 13992 ft | 247 kts | 291° |
| 2026-05-06 16:38 | -22.88049 | -47.74708 | 13992 ft | 252 kts | 292° |
| 2026-05-06 16:38 | -22.87382 | -47.76483 | 13989 ft | 255 kts | 292° |
| 2026-05-06 16:38 | -22.86719 | -47.78251 | 13999 ft | 257 kts | 292° |
| 2026-05-06 16:38 | -22.86041 | -47.80053 | 13995 ft | 259 kts | 292° |
| 2026-05-06 16:39 | -22.85355 | -47.81876 | 13999 ft | 261 kts | 292° |
| 2026-05-06 16:39 | -22.84666 | -47.83708 | 14002 ft | 262 kts | 291° |
| 2026-05-06 16:39 | -22.83984 | -47.85529 | 13997 ft | 263 kts | 292° |
| 2026-05-06 16:39 | -22.83289 | -47.87371 | 14005 ft | 264 kts | 292° |
| 2026-05-06 16:40 | -22.82592 | -47.89226 | 13998 ft | 265 kts | 292° |
| 2026-05-06 16:40 | -22.81901 | -47.91060 | 14004 ft | 266 kts | 292° |
| 2026-05-06 16:40 | -22.81201 | -47.92917 | 13987 ft | 266 kts | 292° |
| 2026-05-06 16:40 | -22.80500 | -47.94780 | 14002 ft | 266 kts | 292° |
| 2026-05-06 16:41 | -22.79808 | -47.96615 | 13993 ft | 267 kts | 292° |
| 2026-05-06 16:41 | -22.79106 | -47.98472 | 14000 ft | 266 kts | 292° |
| 2026-05-06 16:41 | -22.78404 | -48.00333 | 13997 ft | 267 kts | 292° |
| 2026-05-06 16:41 | -22.77700 | -48.02200 | 13998 ft | 267 kts | 292° |
| 2026-05-06 16:42 | -22.76993 | -48.04070 | 13999 ft | 268 kts | 292° |
| 2026-05-06 16:42 | -22.76293 | -48.05936 | 13986 ft | 268 kts | 292° |
| 2026-05-06 16:42 | -22.75595 | -48.07804 | 13986 ft | 267 kts | 292° |
| 2026-05-06 16:42 | -22.75065 | -48.09213 | 13993 ft | 267 kts | 292° |
| 2026-05-06 16:43 | -22.74357 | -48.11077 | 13984 ft | 268 kts | 292° |
| 2026-05-06 16:43 | -22.73643 | -48.12942 | 14000 ft | 267 kts | 292° |
| 2026-05-06 16:43 | -22.72928 | -48.14803 | 13995 ft | 268 kts | 292° |
| 2026-05-06 16:43 | -22.72221 | -48.16645 | 13984 ft | 268 kts | 292° |
| 2026-05-06 16:44 | -22.71505 | -48.18512 | 13982 ft | 267 kts | 292° |
| 2026-05-06 16:44 | -22.70793 | -48.20375 | 13992 ft | 267 kts | 292° |
| 2026-05-06 16:44 | -22.70078 | -48.22240 | 13985 ft | 267 kts | 292° |
| 2026-05-06 16:44 | -22.69367 | -48.24101 | 13993 ft | 267 kts | 292° |
| 2026-05-06 16:45 | -22.68661 | -48.25946 | 13987 ft | 267 kts | 292° |
| 2026-05-06 16:45 | -22.67946 | -48.27810 | 13987 ft | 267 kts | 292° |
| 2026-05-06 16:45 | -22.67239 | -48.29654 | 13993 ft | 267 kts | 292° |
| 2026-05-06 16:45 | -22.66516 | -48.31535 | 13982 ft | 268 kts | 292° |
| 2026-05-06 16:46 | -22.65802 | -48.33400 | 13980 ft | 268 kts | 292° |
| 2026-05-06 16:46 | -22.65094 | -48.35241 | 13977 ft | 267 kts | 292° |
| 2026-05-06 16:46 | -22.64380 | -48.37097 | 13976 ft | 267 kts | 292° |
| 2026-05-06 16:46 | -22.63664 | -48.38957 | 13982 ft | 267 kts | 292° |
| 2026-05-06 16:47 | -22.62951 | -48.40814 | 13982 ft | 267 kts | 292° |
| 2026-05-06 16:47 | -22.62235 | -48.42678 | 13982 ft | 267 kts | 292° |
| 2026-05-06 16:47 | -22.61528 | -48.44515 | 13982 ft | 267 kts | 292° |
| 2026-05-06 16:47 | -22.60833 | -48.46384 | 13979 ft | 266 kts | 287° |
| 2026-05-06 16:48 | -22.60505 | -48.48354 | 13980 ft | 265 kts | 276° |
| 2026-05-06 16:48 | -22.60334 | -48.50328 | 13976 ft | 264 kts | 274° |
| 2026-05-06 16:48 | -22.60165 | -48.52317 | 13977 ft | 264 kts | 275° |
| 2026-05-06 16:48 | -22.59946 | -48.54299 | 13981 ft | 265 kts | 277° |
| 2026-05-06 16:49 | -22.59690 | -48.56261 | 13986 ft | 266 kts | 278° |
| 2026-05-06 16:49 | -22.59430 | -48.58247 | 13983 ft | 266 kts | 277° |
| 2026-05-06 16:49 | -22.59175 | -48.60232 | 13981 ft | 267 kts | 277° |
| 2026-05-06 16:49 | -22.58917 | -48.62230 | 13979 ft | 267 kts | 277° |
| 2026-05-06 16:50 | -22.58665 | -48.64196 | 13975 ft | 267 kts | 277° |
| 2026-05-06 16:50 | -22.58406 | -48.66194 | 13976 ft | 266 kts | 277° |
| 2026-05-06 16:50 | -22.58151 | -48.68177 | 13977 ft | 266 kts | 277° |
| 2026-05-06 16:50 | -22.57980 | -48.69492 | 13982 ft | 266 kts | 277° |
| 2026-05-06 16:51 | -22.57639 | -48.72130 | 13977 ft | 267 kts | 277° |
| 2026-05-06 16:51 | -22.57381 | -48.74128 | 13972 ft | 267 kts | 277° |
| 2026-05-06 16:51 | -22.57122 | -48.76121 | 13976 ft | 267 kts | 277° |
| 2026-05-06 16:51 | -22.56868 | -48.78092 | 13973 ft | 267 kts | 277° |
| 2026-05-06 16:52 | -22.56609 | -48.80085 | 13972 ft | 268 kts | 277° |
| 2026-05-06 16:52 | -22.56350 | -48.82085 | 13968 ft | 267 kts | 277° |
| 2026-05-06 16:52 | -22.56088 | -48.84076 | 13970 ft | 267 kts | 277° |
| 2026-05-06 16:52 | -22.55830 | -48.86070 | 13967 ft | 267 kts | 277° |
| 2026-05-06 16:53 | -22.55570 | -48.88064 | 13973 ft | 267 kts | 278° |
| 2026-05-06 16:53 | -22.55313 | -48.90034 | 13968 ft | 267 kts | 277° |
| 2026-05-06 16:53 | -22.55054 | -48.92028 | 13971 ft | 267 kts | 278° |
| 2026-05-06 16:53 | -22.54793 | -48.94023 | 13966 ft | 267 kts | 278° |
| 2026-05-06 16:54 | -22.54531 | -48.96010 | 13967 ft | 266 kts | 277° |
| 2026-05-06 16:54 | -22.54276 | -48.97972 | 13968 ft | 266 kts | 278° |
| 2026-05-06 16:54 | -22.54016 | -48.99958 | 13976 ft | 266 kts | 278° |
| 2026-05-06 16:54 | -22.53753 | -49.01950 | 13973 ft | 267 kts | 278° |
| 2026-05-06 16:55 | -22.53493 | -49.03940 | 13970 ft | 267 kts | 278° |
| 2026-05-06 16:55 | -22.53233 | -49.05908 | 13972 ft | 267 kts | 278° |
| 2026-05-06 16:55 | -22.52971 | -49.07903 | 13970 ft | 267 kts | 278° |
| 2026-05-06 16:55 | -22.52709 | -49.09897 | 13967 ft | 267 kts | 278° |
| 2026-05-06 16:56 | -22.52450 | -49.11862 | 13966 ft | 267 kts | 278° |
| 2026-05-06 16:56 | -22.52186 | -49.13846 | 13969 ft | 267 kts | 278° |
| 2026-05-06 16:56 | -22.51924 | -49.15838 | 13975 ft | 267 kts | 278° |
| 2026-05-06 16:56 | -22.51660 | -49.17831 | 13973 ft | 267 kts | 278° |
| 2026-05-06 16:57 | -22.51395 | -49.19827 | 13973 ft | 267 kts | 278° |
| 2026-05-06 16:57 | -22.51135 | -49.21799 | 13974 ft | 268 kts | 278° |
| 2026-05-06 16:57 | -22.50870 | -49.23795 | 13968 ft | 268 kts | 278° |
| 2026-05-06 16:57 | -22.50605 | -49.25795 | 13967 ft | 268 kts | 278° |
| 2026-05-06 16:58 | -22.50341 | -49.27774 | 13974 ft | 268 kts | 278° |
| 2026-05-06 16:58 | -22.50075 | -49.29775 | 13979 ft | 269 kts | 278° |
| 2026-05-06 16:58 | -22.49808 | -49.31782 | 13970 ft | 270 kts | 278° |
| 2026-05-06 16:58 | -22.49540 | -49.33795 | 13971 ft | 270 kts | 278° |
| 2026-05-06 16:59 | -22.49272 | -49.35807 | 13969 ft | 270 kts | 278° |
| 2026-05-06 16:59 | -22.49004 | -49.37820 | 13964 ft | 270 kts | 278° |
| 2026-05-06 16:59 | -22.48738 | -49.39810 | 13968 ft | 270 kts | 278° |
| 2026-05-06 16:59 | -22.48468 | -49.41828 | 13968 ft | 269 kts | 278° |
| 2026-05-06 17:00 | -22.48202 | -49.43810 | 13976 ft | 269 kts | 278° |
| 2026-05-06 17:00 | -22.47933 | -49.45820 | 13973 ft | 270 kts | 278° |
| 2026-05-06 17:00 | -22.47662 | -49.47831 | 13967 ft | 270 kts | 278° |
| 2026-05-06 17:00 | -22.47483 | -49.49161 | 13966 ft | 269 kts | 278° |
| 2026-05-06 17:01 | -22.47214 | -49.51169 | 13973 ft | 269 kts | 278° |
| 2026-05-06 17:01 | -22.46940 | -49.53198 | 13737 ft | 279 kts | 278° |
| 2026-05-06 17:01 | -22.46656 | -49.55290 | 13494 ft | 279 kts | 278° |
| 2026-05-06 17:01 | -22.46374 | -49.57374 | 13125 ft | 282 kts | 278° |
| 2026-05-06 17:02 | -22.46094 | -49.59485 | 12737 ft | 286 kts | 278° |
| 2026-05-06 17:02 | -22.45805 | -49.61615 | 12335 ft | 285 kts | 279° |
| 2026-05-06 17:02 | -22.45530 | -49.63630 | 11959 ft | 261 kts | 279° |
| 2026-05-06 17:02 | -22.45274 | -49.65519 | 11609 ft | 241 kts | 279° |
| 2026-05-06 17:03 | -22.45041 | -49.67251 | 11296 ft | 225 kts | 279° |
| 2026-05-06 17:03 | -22.44824 | -49.68863 | 10991 ft | 214 kts | 280° |
| 2026-05-06 17:03 | -22.44613 | -49.70421 | 10701 ft | 205 kts | 279° |
| 2026-05-06 17:03 | -22.44404 | -49.71953 | 10418 ft | 209 kts | 279° |
| 2026-05-06 17:04 | -22.44188 | -49.73529 | 10140 ft | 215 kts | 280° |
| 2026-05-06 17:04 | -22.43968 | -49.75136 | 9850 ft | 214 kts | 280° |
| 2026-05-06 17:04 | -22.43756 | -49.76697 | 9552 ft | 207 kts | 280° |
| 2026-05-06 17:04 | -22.43548 | -49.78226 | 9270 ft | 202 kts | 280° |
| 2026-05-06 17:05 | -22.43342 | -49.79711 | 8979 ft | 198 kts | 280° |
| 2026-05-06 17:05 | -22.43146 | -49.81188 | 8709 ft | 202 kts | 281° |
| 2026-05-06 17:05 | -22.42937 | -49.82707 | 8441 ft | 210 kts | 281° |
| 2026-05-06 17:05 | -22.42714 | -49.84309 | 8127 ft | 217 kts | 280° |
| 2026-05-06 17:06 | -22.42492 | -49.85927 | 7843 ft | 222 kts | 280° |
| 2026-05-06 17:06 | -22.42262 | -49.87612 | 7519 ft | 226 kts | 282° |
| 2026-05-06 17:06 | -22.41673 | -49.89085 | 7234 ft | 202 kts | 306° |
| 2026-05-06 17:06 | -22.40895 | -49.90299 | 6951 ft | 192 kts | 308° |
| 2026-05-06 17:07 | -22.40136 | -49.91461 | 6685 ft | 189 kts | 308° |
| 2026-05-06 17:07 | -22.39373 | -49.92631 | 6449 ft | 198 kts | 308° |
| 2026-05-06 17:07 | -22.38555 | -49.93875 | 6204 ft | 206 kts | 307° |
| 2026-05-06 17:07 | -22.37772 | -49.95127 | 5886 ft | 196 kts | 305° |
| 2026-05-06 17:08 | -22.36900 | -49.96158 | 5611 ft | 180 kts | 337° |
| 2026-05-06 17:08 | -22.35727 | -49.96395 | 5372 ft | 168 kts | 0° |
| 2026-05-06 17:08 | -22.34577 | -49.96356 | 5145 ft | 162 kts | 7° |
| 2026-05-06 17:08 | -22.33501 | -49.96191 | 4923 ft | 151 kts | 11° |
| 2026-05-06 17:09 | -22.32528 | -49.95974 | 4686 ft | 133 kts | 14° |
| 2026-05-06 17:09 | -22.31686 | -49.95745 | 4527 ft | 116 kts | 15° |
| 2026-05-06 17:09 | -22.30945 | -49.95554 | 4484 ft | 111 kts | 14° |
| 2026-05-06 17:09 | -22.30178 | -49.95359 | 4456 ft | 118 kts | 14° |
| 2026-05-06 17:10 | -22.29320 | -49.95132 | 4193 ft | 141 kts | 15° |
| 2026-05-06 17:10 | -22.28343 | -49.94857 | 3967 ft | 138 kts | 16° |
| 2026-05-06 17:10 | -22.27438 | -49.94603 | 3736 ft | 130 kts | 15° |
| 2026-05-06 17:10 | -22.26581 | -49.94382 | 3530 ft | 123 kts | 13° |
| 2026-05-06 17:11 | -22.25767 | -49.94181 | 3364 ft | 116 kts | 13° |
| 2026-05-06 17:11 | -22.25000 | -49.93999 | 3412 ft | 118 kts | 12° |
| 2026-05-06 17:11 | -22.24189 | -49.93811 | 3456 ft | 119 kts | 11° |
| 2026-05-06 17:11 | -22.23345 | -49.93655 | 3296 ft | 129 kts | 10° |
| 2026-05-06 17:12 | -22.22475 | -49.93441 | 2971 ft | 132 kts | 15° |
| 2026-05-06 17:12 | -22.21581 | -49.93149 | 2539 ft | 133 kts | 17° |
| 2026-05-06 17:12 | -22.20694 | -49.92907 | 2203 ft | 126 kts | 13° |
| 2026-05-06 17:12 | -22.19933 | -49.92710 | 2127 ft | 81 kts | 11° |
| 2026-05-06 17:13 | -22.19659 | -49.92646 | 2111 ft | 17 kts | 14° |
| 2026-05-06 17:13 | -22.19544 | -49.92615 | 2107 ft | 17 kts | 14° |
| 2026-05-06 17:13 | -22.19432 | -49.92585 | 2103 ft | 17 kts | 14° |
| 2026-05-06 17:13 | -22.19321 | -49.92558 | 2099 ft | 16 kts | 11° |
| 2026-05-06 17:14 | -22.19254 | -49.92570 | 2096 ft | 9 kts | 303° |
| 2026-05-06 17:14 | -22.19267 | -49.92629 | 2096 ft | 8 kts | 212° |
| 2026-05-06 17:14 | -22.19315 | -49.92644 | 2098 ft | 7 kts | 192° |
| 2026-05-06 17:14 | -22.19358 | -49.92655 | 2100 ft | 6 kts | 196° |
| 2026-05-06 17:15 | -22.19396 | -49.92665 | 2101 ft | 6 kts | 192° |
| 2026-05-06 17:15 | -22.19433 | -49.92675 | 2103 ft | 5 kts | 193° |
| 2026-05-06 17:15 | -22.19469 | -49.92683 | 2104 ft | 5 kts | 192° |
| 2026-05-06 17:15 | -22.19505 | -49.92692 | 2106 ft | 5 kts | 192° |
| 2026-05-06 17:16 | -22.19541 | -49.92700 | 2107 ft | 5 kts | 192° |
| 2026-05-06 17:16 | -22.19578 | -49.92709 | 2109 ft | 6 kts | 192° |
| 2026-05-06 17:16 | -22.19582 | -49.92710 | 2109 ft | 0 kts | 192° |
| 2026-05-06 17:19 | -22.19585 | -49.92711 | 2109 ft | 2 kts | 192° |
| 2026-05-06 17:19 | -22.19626 | -49.92721 | 2110 ft | 9 kts | 195° |
| 2026-05-06 17:19 | -22.19682 | -49.92736 | 2112 ft | 8 kts | 193° |
| 2026-05-06 17:20 | -22.19730 | -49.92748 | 2114 ft | 7 kts | 194° |
| 2026-05-06 17:20 | -22.19759 | -49.92776 | 2117 ft | 5 kts | 251° |
| 2026-05-06 17:20 | -22.19755 | -49.92830 | 2117 ft | 9 kts | 283° |
| 2026-05-06 17:20 | -22.19736 | -49.92894 | 2118 ft | 8 kts | 310° |
| 2026-05-06 17:21 | -22.19694 | -49.92901 | 2115 ft | 3 kts | 10° |
| 2026-05-06 17:21 | -22.19692 | -49.92900 | 2114 ft | 0 kts | 10° |